Time,TemperatureF,DewpointF,PressureIn,WindDirection,WindDirectionDegrees,WindSpeedMPH,WindSpeedGustMPH,Humidity,HourlyPrecipIn,Conditions,Clouds,dailyrainin,SoftwareType,DateUTC
2013-07-16 00:01:00,77.0,73.0,30.37,South,183,0.0,0.0,88,0.00,,,-99.99,,2013-07-16 04:01:00,
2013-07-16 00:12:00,75.0,72.0,30.37,South,183,0.0,0.0,91,0.00,,,-99.99,,2013-07-16 04:12:00,
2013-07-16 00:32:00,75.0,72.0,30.37,South,183,0.0,0.0,91,0.00,,,-99.99,,2013-07-16 04:32:00,
2013-07-16 00:43:00,75.0,72.0,30.37,South,183,0.0,0.0,91,0.00,,,-99.99,,2013-07-16 04:43:00,
2013-07-16 00:53:00,75.0,72.0,30.37,South,183,0.0,0.0,91,0.00,,,-99.99,,2013-07-16 04:53:00,
2013-07-16 01:01:00,75.0,72.0,30.37,South,183,0.0,0.0,91,0.00,,,-99.99,,2013-07-16 05:01:00,
2013-07-16 01:22:00,74.0,72.0,30.37,South,183,0.0,0.0,92,0.00,,,-99.99,,2013-07-16 05:22:00,
2013-07-16 01:32:00,74.0,72.0,30.37,South,183,0.0,0.0,92,0.00,,,-99.99,,2013-07-16 05:32:00,
2013-07-16 01:43:00,74.0,72.0,30.37,South,183,0.0,0.0,92,0.00,,,-99.99,,2013-07-16 05:43:00,
2013-07-16 01:52:00,73.0,71.0,30.37,South,183,0.0,0.0,92,0.00,,,-99.99,,2013-07-16 05:52:00,
2013-07-16 02:01:00,74.0,72.0,30.37,South,183,0.0,0.0,92,0.00,,,-99.99,,2013-07-16 06:01:00,
2013-07-16 02:12:00,74.0,72.0,30.37,South,183,0.0,0.0,92,0.00,,,-99.99,,2013-07-16 06:12:00,
2013-07-16 02:22:00,74.0,72.0,30.37,South,183,0.0,0.0,92,0.00,,,-99.99,,2013-07-16 06:22:00,
2013-07-16 02:43:00,73.0,71.0,30.37,South,183,0.0,0.0,92,0.00,,,-99.99,,2013-07-16 06:43:00,
2013-07-16 02:52:00,73.0,71.0,30.37,South,183,0.0,0.0,92,0.00,,,-99.99,,2013-07-16 06:52:00,
2013-07-16 03:12:00,73.0,71.0,30.37,South,183,0.0,0.0,93,0.00,,,-99.99,,2013-07-16 07:12:00,
2013-07-16 03:22:00,73.0,71.0,30.37,South,183,0.0,0.0,93,0.00,,,-99.99,,2013-07-16 07:22:00,
2013-07-16 03:32:00,72.0,70.0,30.36,South,183,0.0,0.0,94,0.00,,,-99.99,,2013-07-16 07:32:00,
2013-07-16 03:43:00,72.0,70.0,30.36,South,183,0.0,0.0,94,0.00,,,-99.99,,2013-07-16 07:43:00,
2013-07-16 03:52:00,72.0,70.0,30.36,South,183,0.0,0.0,94,0.00,,,-99.99,,2013-07-16 07:52:00,
2013-07-16 04:01:00,72.0,70.0,30.36,South,183,0.0,0.0,94,0.00,,,-99.99,,2013-07-16 08:01:00,
2013-07-16 04:32:00,71.0,69.0,30.36,South,183,0.0,0.0,95,0.00,,,-99.99,,2013-07-16 08:32:00,
2013-07-16 04:43:00,71.0,69.0,30.36,South,183,0.0,0.0,94,0.00,,,-99.99,,2013-07-16 08:43:00,
2013-07-16 04:52:00,71.0,69.0,30.36,South,183,0.0,0.0,94,0.00,,,-99.99,,2013-07-16 08:52:00,
2013-07-16 05:01:00,71.0,69.0,30.36,South,183,0.0,0.0,94,0.00,,,-99.99,,2013-07-16 09:01:00,
2013-07-16 05:12:00,71.0,69.0,30.36,South,183,0.0,0.0,94,0.00,,,-99.99,,2013-07-16 09:12:00,
2013-07-16 05:32:00,71.0,70.0,30.36,South,183,0.0,0.0,96,0.00,,,-99.99,,2013-07-16 09:32:00,
2013-07-16 05:42:00,71.0,70.0,30.37,South,183,0.0,0.0,96,0.00,,,-99.99,,2013-07-16 09:42:00,
2013-07-16 05:52:00,71.0,70.0,30.37,South,183,0.0,0.0,96,0.00,,,-99.99,,2013-07-16 09:52:00,
2013-07-16 06:01:00,71.0,70.0,30.37,South,183,0.0,0.0,96,0.00,,,-99.99,,2013-07-16 10:01:00,
2013-07-16 06:11:00,71.0,70.0,30.37,South,183,0.0,0.0,96,0.00,,,-99.99,,2013-07-16 10:11:00,
2013-07-16 06:31:00,71.0,70.0,30.37,South,183,0.0,0.0,96,0.00,,,-99.99,,2013-07-16 10:31:00,
2013-07-16 06:43:00,71.0,70.0,30.37,South,183,0.0,0.0,96,0.00,,,-99.99,,2013-07-16 10:43:00,
2013-07-16 06:52:00,71.0,70.0,30.37,South,183,0.0,0.0,96,0.00,,,-99.99,,2013-07-16 10:52:00,
2013-07-16 07:01:00,71.0,70.0,30.37,South,183,0.0,0.0,96,0.00,,,-99.99,,2013-07-16 11:01:00,
2013-07-16 07:32:00,72.0,70.0,30.38,South,183,0.0,0.0,95,0.00,,,-99.99,,2013-07-16 11:32:00,
2013-07-16 07:42:00,72.0,70.0,30.38,South,183,0.0,0.0,95,0.00,,,-99.99,,2013-07-16 11:42:00,
2013-07-16 07:53:00,72.0,70.0,30.38,South,183,0.0,0.0,95,0.00,,,-99.99,,2013-07-16 11:53:00,
2013-07-16 08:01:00,72.0,70.0,30.38,South,183,0.0,0.0,95,0.00,,,-99.99,,2013-07-16 12:01:00,
2013-07-16 08:11:00,72.0,70.0,30.38,South,183,0.0,0.0,95,0.00,,,-99.99,,2013-07-16 12:11:00,
2013-07-16 08:53:00,76.0,73.0,30.40,SE,139,0.0,0.0,91,0.00,,,-99.99,,2013-07-16 12:53:00,
2013-07-16 09:01:00,76.0,73.0,30.40,SE,139,0.0,0.0,91,0.00,,,-99.99,,2013-07-16 13:01:00,
2013-07-16 09:22:00,77.0,74.0,30.40,SSE,156,1.0,4.0,91,0.00,,,-99.99,,2013-07-16 13:22:00,
2013-07-16 09:32:00,77.0,74.0,30.40,SSE,156,1.0,4.0,91,0.00,,,-99.99,,2013-07-16 13:32:00,
2013-07-16 10:52:00,84.0,76.0,30.40,ENE,70,3.0,12.0,76,0.00,,,-99.99,,2013-07-16 14:52:00,
2013-07-16 11:01:00,84.0,75.0,30.40,NE,55,3.0,9.0,75,0.00,,,-99.99,,2013-07-16 15:01:00,
2013-07-16 11:11:00,84.0,75.0,30.40,NE,55,3.0,9.0,75,0.00,,,-99.99,,2013-07-16 15:11:00,
2013-07-16 11:22:00,85.0,75.0,30.40,NE,55,2.0,10.0,73,0.00,,,-99.99,,2013-07-16 15:22:00,
2013-07-16 11:32:00,85.0,75.0,30.40,East,88,3.0,9.0,73,0.00,,,-99.99,,2013-07-16 15:32:00,
2013-07-16 11:43:00,85.0,75.0,30.40,ENE,77,4.0,10.0,71,0.00,,,-99.99,,2013-07-16 15:43:00,
2013-07-16 12:43:00,87.0,75.0,30.40,East,99,4.0,10.0,68,0.00,,,-99.99,,2013-07-16 16:43:00,
2013-07-16 13:02:00,88.0,76.0,30.38,South,189,2.0,8.0,68,0.00,,,-99.99,,2013-07-16 17:02:00,
2013-07-16 13:12:00,88.0,76.0,30.38,South,189,2.0,8.0,68,0.00,,,-99.99,,2013-07-16 17:12:00,
2013-07-16 13:33:00,88.0,75.0,30.37,East,88,3.0,9.0,65,0.00,,,-99.99,,2013-07-16 17:33:00,
2013-07-16 13:53:00,88.0,75.0,30.37,ENE,76,3.0,8.0,66,0.00,,,-99.99,,2013-07-16 17:53:00,
2013-07-16 14:01:00,89.0,75.0,30.37,ENE,64,1.0,9.0,64,0.00,,,-99.99,,2013-07-16 18:01:00,
2013-07-16 15:43:00,89.0,76.0,30.35,ENE,64,2.0,10.0,65,0.00,,,-99.99,,2013-07-16 19:43:00,
2013-07-16 16:03:00,90.0,77.0,30.35,ENE,75,3.0,9.0,65,0.00,,,-99.99,,2013-07-16 20:03:00,
2013-07-16 16:22:00,90.0,75.0,30.33,ESE,117,3.0,10.0,62,0.00,,,-99.99,,2013-07-16 20:22:00,
2013-07-16 16:32:00,89.0,74.0,30.35,East,86,3.0,8.0,62,0.00,,,-99.99,,2013-07-16 20:32:00,
2013-07-16 16:43:00,89.0,75.0,30.35,ENE,75,3.0,7.0,63,0.00,,,-99.99,,2013-07-16 20:43:00,
2013-07-16 17:11:00,89.0,75.0,30.35,ESE,119,2.0,9.0,63,0.00,,,-99.99,,2013-07-16 21:11:00,
2013-07-16 17:52:00,88.0,75.0,30.35,ENE,76,4.0,10.0,65,0.00,,,-99.99,,2013-07-16 21:52:00,
2013-07-16 18:11:00,87.0,76.0,30.35,SE,128,1.0,6.0,70,0.00,,,-99.99,,2013-07-16 22:11:00,
2013-07-16 18:22:00,87.0,76.0,30.35,SE,128,1.0,6.0,70,0.00,,,-99.99,,2013-07-16 22:22:00,
2013-07-16 18:33:00,86.0,76.0,30.32,South,175,4.0,10.0,73,0.00,,,-99.99,,2013-07-16 22:33:00,
2013-07-16 19:11:00,85.0,75.0,30.33,South,170,4.0,10.0,71,0.00,,,-99.99,,2013-07-16 23:11:00,
2013-07-16 19:32:00,84.0,74.0,30.35,SSW,213,3.0,9.0,72,0.00,,,-99.99,,2013-07-16 23:32:00,
2013-07-16 19:43:00,84.0,74.0,30.35,SSW,213,3.0,9.0,72,0.00,,,-99.99,,2013-07-16 23:43:00,
2013-07-16 19:52:00,84.0,74.0,30.35,SSW,213,3.0,9.0,72,0.00,,,-99.99,,2013-07-16 23:52:00,
2013-07-16 20:01:00,83.0,73.0,30.35,SSE,156,0.0,5.0,73,0.00,,,-99.99,,2013-07-17 00:01:00,
2013-07-16 20:33:00,81.0,73.0,30.35,SSE,150,0.0,0.0,76,0.00,,,-99.99,,2013-07-17 00:33:00,
2013-07-16 20:42:00,81.0,73.0,30.35,South,173,0.0,0.0,77,0.00,,,-99.99,,2013-07-17 00:42:00,
2013-07-16 20:52:00,80.0,72.0,30.35,South,173,0.0,0.0,78,0.00,,,-99.99,,2013-07-17 00:52:00,
2013-07-16 21:01:00,80.0,73.0,30.35,South,173,0.0,0.0,80,0.00,,,-99.99,,2013-07-17 01:01:00,
2013-07-16 21:12:00,80.0,73.0,30.35,South,173,0.0,0.0,80,0.00,,,-99.99,,2013-07-17 01:12:00,
2013-07-16 21:22:00,80.0,74.0,30.35,South,173,0.0,0.0,82,0.00,,,-99.99,,2013-07-17 01:22:00,
2013-07-16 21:32:00,79.0,73.0,30.35,South,173,0.0,0.0,82,0.00,,,-99.99,,2013-07-17 01:32:00,
2013-07-16 21:43:00,79.0,73.0,30.35,South,173,0.0,0.0,83,0.00,,,-99.99,,2013-07-17 01:43:00,
2013-07-16 21:53:00,79.0,74.0,30.36,SSE,152,1.0,5.0,84,0.00,,,-99.99,,2013-07-17 01:53:00,
2013-07-16 22:01:00,78.0,73.0,30.36,SE,134,0.0,0.0,85,0.00,,,-99.99,,2013-07-17 02:01:00,
2013-07-16 22:11:00,78.0,73.0,30.36,SE,134,0.0,0.0,85,0.00,,,-99.99,,2013-07-17 02:11:00,
2013-07-16 22:32:00,78.0,74.0,30.36,SE,134,0.0,0.0,87,0.00,,,-99.99,,2013-07-17 02:32:00,
2013-07-16 22:43:00,78.0,74.0,30.36,SE,134,0.0,0.0,87,0.00,,,-99.99,,2013-07-17 02:43:00,
2013-07-16 22:53:00,78.0,74.0,30.36,SE,134,0.0,0.0,87,0.00,,,-99.99,,2013-07-17 02:53:00,
2013-07-16 23:01:00,77.0,74.0,30.38,SE,134,0.0,0.0,89,0.00,,,-99.99,,2013-07-17 03:01:00,
2013-07-16 23:11:00,77.0,74.0,30.38,SE,134,0.0,0.0,89,0.00,,,-99.99,,2013-07-17 03:11:00,
2013-07-16 23:22:00,77.0,74.0,30.38,SE,134,0.0,0.0,89,0.00,,,-99.99,,2013-07-17 03:22:00,
2013-07-16 23:43:00,76.0,73.0,30.37,SE,134,0.0,0.0,91,0.00,,,-99.99,,2013-07-17 03:43:00,